Bretagne — FNBR — position and weather

sailwx.info

Track history (hours):
 
Tides and Currents Weather Stations Pressure Air Temp Water Temp Dewpoint Dewpoint Depression Visibility Wind Speed Wind Dir Waves Ship Positions

Bretagne

Operator: Brittany Ferries

Last reported at 2019-Aug-24 07:13 UTC. Time now 2019-Aug-24 07:44 UTC.
Position N 48°38' W 002°02'.

Length 151 m; beam 27 m.

Type: Ship. MMSI: 227286000.

Date/timePositionNaut miles runAvg speedWind from/ knotsBaromVisibWave heightAir tempDewpointWater temp
2019-Aug-24 07:13N 48°38' W 002°02'0 0.0
2019-Aug-24 06:58N 48°38' W 002°02'0 0.0
2019-Aug-24 06:16N 48°38' W 002°02'0 0.5
2019-Aug-24 06:01N 48°38' W 002°02'712.8
2019-Aug-24 05:30N 48°44' W 002°07'815.2
2019-Aug-24 05:00N 48°50' W 002°15'713.0
2019-Aug-24 04:30N 48°55' W 002°21'611.5
2019-Aug-24 04:00N 49°00' W 002°23'611.6
2019-Aug-24 03:31N 49°06' W 002°23'611.5
2019-Aug-24 03:01N 49°12' W 002°22'611.4
2019-Aug-24 02:31N 49°17' W 002°21'714.1
2019-Aug-24 02:01N 49°24' W 002°17'714.2
2019-Aug-24 01:30N 49°30' W 002°12'714.1
2019-Aug-24 01:01N 49°37' W 002°07'612.8
2019-Aug-24 00:31N 49°43' W 002°04'612.1
2019-Aug-24 00:01N 49°48' W 001°58'713.5
2019-Aug-23 23:30N 49°53' W 001°52'714.7
2019-Aug-23 23:01N 49°59' W 001°45'815.5
2019-Aug-23 22:30N 50°06' W 001°40'816.0
2019-Aug-23 22:00N 50°12' W 001°32'816.1
2019-Aug-23 21:30N 50°19' W 001°26'816.5
2019-Aug-23 21:01N 50°26' W 001°19'816.9
2019-Aug-23 20:31N 50°33' W 001°11'816.4
2019-Aug-23 20:00N 50°40' W 001°04'612.4
2019-Aug-23 19:30N 50°46' W 001°05'3 5.4
2019-Aug-23 19:00N 50°49' W 001°06'0 0.0
2019-Aug-23 18:30N 50°49' W 001°06'0 0.0
2019-Aug-23 18:00N 50°49' W 001°06'0 0.0
2019-Aug-23 17:30N 50°49' W 001°06'1 1.7
2019-Aug-23 17:00N 50°48' W 001°07'612.4
2019-Aug-23 16:30N 50°43' W 001°03'713.5
2019-Aug-23 16:00N 50°36' W 001°08'815.6
2019-Aug-23 15:30N 50°29' W 001°13'816.2
2019-Aug-23 15:00N 50°23' W 001°21'816.4
2019-Aug-23 14:30N 50°17' W 001°29'816.7
2019-Aug-23 14:00N 50°10' W 001°36'917.0
2019-Aug-23 13:30N 50°03' W 001°43'816.8
2019-Aug-23 13:00N 49°55' W 001°49'817.0
2019-Aug-23 12:30N 49°48' W 001°56'918.2
2019-Aug-23 12:00N 49°39' W 002°02'918.1
2019-Aug-23 11:30N 49°31' W 001°59'1019.3
2019-Aug-23 11:00N 49°21' W 001°57'1318.0
2019-Aug-23 10:18N 49°09' W 001°53'618.2
2019-Aug-23 10:00N 49°03' W 001°50'918.4
2019-Aug-23 09:30N 48°55' W 001°57'1518.9
2019-Aug-23 08:43N 48°42' W 002°06'315.6
2019-Aug-23 08:30N 48°39' W 002°03'1 1.3
2019-Aug-23 07:53N 48°38' W 002°02'0 0.0
2019-Aug-23 06:44N 48°38' W 002°02'0 0.0
2019-Aug-23 06:26N 48°38' W 002°02'0 0.1
2019-Aug-23 06:00N 48°38' W 002°02'612.9
2019-Aug-23 05:30N 48°44' W 002°08'917.3
2019-Aug-23 05:00N 48°50' W 002°16'815.0
2019-Aug-23 04:30N 48°57' W 002°21'816.0
2019-Aug-23 04:00N 49°05' W 002°22'816.0
2019-Aug-23 03:30N 49°13' W 002°22'612.5
2019-Aug-23 03:00N 49°19' W 002°19'612.5
2019-Aug-23 02:30N 49°25' W 002°15'714.8
2019-Aug-23 02:01N 49°31' W 002°10'815.4
2019-Aug-23 01:30N 49°38' W 002°05'713.7
2019-Aug-23 00:58N 49°45' W 001°59'612.8
2019-Aug-23 00:30N 49°48' W 001°52'713.9
2019-Aug-23 00:00N 49°54' W 001°46'714.6
2019-Aug-22 23:31N 50°01' W 001°42'815.0
2019-Aug-22 23:00N 50°08' W 001°38'814.8
2019-Aug-22 22:28N 50°14' W 001°30'815.3
2019-Aug-22 21:58N 50°21' W 001°23'715.5
2019-Aug-22 21:30N 50°26' W 001°17'815.5
2019-Aug-22 21:00N 50°32' W 001°08'815.8
2019-Aug-22 20:31N 50°38' W 001°01'611.4
2019-Aug-22 20:00N 50°44' W 001°03'510.9
2019-Aug-22 19:31N 50°49' W 001°07'1 1.1
2019-Aug-22 18:58N 50°49' W 001°06'0 0.0
2019-Aug-22 18:28N 50°49' W 001°06'0 0.0
2019-Aug-22 17:58N 50°49' W 001°06'0 0.0
2019-Aug-22 17:28N 50°49' W 001°06'0 0.7
2019-Aug-22 17:01N 50°49' W 001°06'510.6
2019-Aug-22 16:30N 50°44' W 001°04'713.0
2019-Aug-22 16:00N 50°37' W 001°07'613.0
2019-Aug-22 15:30N 50°32' W 001°12'612.1
2019-Aug-22 15:00N 50°27' W 001°17'612.6
2019-Aug-22 14:30N 50°22' W 001°23'713.3
2019-Aug-22 14:00N 50°17' W 001°30'917.1
2019-Aug-22 13:30N 50°09' W 001°37'917.6
2019-Aug-22 13:00N 50°02' W 001°44'918.1
2019-Aug-22 12:30N 49°54' W 001°52'1019.1
2019-Aug-22 12:00N 49°46' W 001°59'1019.9
2019-Aug-22 11:29N 49°36' W 001°59'1020.1
2019-Aug-22 11:00N 49°26' W 001°57'1019.9
2019-Aug-22 10:30N 49°17' W 001°53'1018.9
2019-Aug-22 10:00N 49°07' W 001°52'1018.0
2019-Aug-22 09:25N 48°57' W 001°56'1519.2
2019-Aug-22 08:39N 48°42' W 002°01'317.1
2019-Aug-22 08:28N 48°40' W 002°02'1 2.1
2019-Aug-22 07:56N 48°38' W 002°02'0 0.0
2019-Aug-22 07:10N 48°38' W 002°02'0 0.0
2019-Aug-22 06:58N 48°38' W 002°02'0 0.0
2019-Aug-22 06:28N 48°38' W 002°02'0 0.1
2019-Aug-22 06:00N 48°38' W 002°02'814.4
2019-Aug-22 05:28N 48°45' W 002°08'816.6
2019-Aug-22 05:00N 48°51' W 002°16'916.1
2019-Aug-22 04:29N 48°58' W 002°22'816.3
2019-Aug-22 03:59N 49°06' W 002°23'612.6
2019-Aug-22 03:30N 49°12' W 002°22'713.2
2019-Aug-22 03:01N 49°19' W 002°19'713.1
2019-Aug-22 02:30N 49°25' W 002°16'713.3
2019-Aug-22 02:00N 49°31' W 002°13'816.3
2019-Aug-22 01:30N 49°38' W 002°07'815.2
2019-Aug-22 01:00N 49°45' W 002°02'713.6
2019-Aug-22 00:30N 49°50' W 001°54'713.8
2019-Aug-22 00:00N 49°54' W 001°46'714.1
2019-Aug-21 23:31N 49°60' W 001°40'714.5
2019-Aug-21 23:00N 50°06' W 001°35'714.6
2019-Aug-21 22:30N 50°13' W 001°29'714.8
2019-Aug-21 22:00N 50°19' W 001°22'815.1
2019-Aug-21 21:30N 50°25' W 001°16'714.6
2019-Aug-21 21:00N 50°31' W 001°09'714.4
2019-Aug-21 20:30N 50°37' W 001°02'612.4
2019-Aug-21 20:00N 50°43' W 000°60'713.4
2019-Aug-21 19:30N 50°48' W 001°07'1 1.8
2019-Aug-21 18:58N 50°49' W 001°06'0 0.0
2019-Aug-21 18:28N 50°49' W 001°06'0 0.0
2019-Aug-21 17:58N 50°49' W 001°06'0 0.0
2019-Aug-21 17:29N 50°49' W 001°06'0 0.9
2019-Aug-21 17:01N 50°49' W 001°06'510.5
2019-Aug-21 16:30N 50°44' W 001°04'612.4
2019-Aug-21 16:00N 50°38' W 001°06'510.4
2019-Aug-21 15:30N 50°33' W 001°10'611.4
2019-Aug-21 15:00N 50°28' W 001°14'713.7
2019-Aug-21 14:30N 50°22' W 001°19'916.6
2019-Aug-21 14:00N 50°14' W 001°25'918.8
2019-Aug-21 13:31N 50°08' W 001°36'1019.1
2019-Aug-21 13:00N 50°00' W 001°44'1019.7
2019-Aug-21 12:30N 49°52' W 001°52'1121.0
2019-Aug-21 11:58N 49°42' W 002°01'1021.9
2019-Aug-21 11:30N 49°32' W 002°00'1121.2
2019-Aug-21 11:01N 49°22' W 001°56'1019.3
2019-Aug-21 10:29N 49°12' W 001°52'1218.4
2019-Aug-21 09:49N 48°60' W 001°54'1819.3
2019-Aug-21 08:52N 48°42' W 002°01'4 1.7
2019-Aug-21 06:37N 48°38' W 002°02'0 0.0
2019-Aug-21 06:25N 48°38' W 002°02'0 0.2
2019-Aug-21 06:01N 48°38' W 002°02'612.9
2019-Aug-21 05:30N 48°44' W 002°07'1016.3
2019-Aug-21 04:54N 48°51' W 002°17'815.5
2019-Aug-21 04:25N 48°58' W 002°22'716.8
2019-Aug-21 04:00N 49°05' W 002°22'714.8
2019-Aug-21 03:30N 49°12' W 002°22'713.8
2019-Aug-21 03:00N 49°19' W 002°20'713.2
2019-Aug-21 02:30N 49°25' W 002°16'612.9
2019-Aug-21 02:00N 49°31' W 002°11'612.7
2019-Aug-21 01:31N 49°37' W 002°08'916.4
2019-Aug-21 00:59N 49°45' W 002°02'714.2
2019-Aug-21 00:30N 49°49' W 001°55'714.0
2019-Aug-21 00:00N 49°54' W 001°47'714.3
2019-Aug-20 23:30N 49°60' W 001°41'714.8
2019-Aug-20 23:01N 50°07' W 001°37'714.2
2019-Aug-20 22:30N 50°13' W 001°31'714.3
2019-Aug-20 22:00N 50°18' W 001°24'1014.5
2019-Aug-20 21:19N 50°26' W 001°14'414.3
2019-Aug-20 21:00N 50°30' W 001°10'714.4
2019-Aug-20 20:30N 50°36' W 001°04'713.7
2019-Aug-20 20:00N 50°42' W 000°59'612.6
2019-Aug-20 19:30N 50°46' W 001°06'2 4.4
2019-Aug-20 18:58N 50°49' W 001°06'0 0.0
2019-Aug-20 18:28N 50°49' W 001°06'0 0.0
2019-Aug-20 17:58N 50°49' W 001°06'0 0.0
2019-Aug-20 17:28N 50°49' W 001°06'1 1.4
2019-Aug-20 17:00N 50°49' W 001°07'611.3
2019-Aug-20 16:31N 50°43' W 001°03'612.3
2019-Aug-20 16:00N 50°37' W 001°06'612.6
2019-Aug-20 15:30N 50°32' W 001°10'1012.6
2019-Aug-20 14:42N 50°23' W 001°17'314.9
2019-Aug-20 14:30N 50°20' W 001°19'917.4
2019-Aug-20 14:00N 50°12' W 001°26'917.6
2019-Aug-20 13:30N 50°07' W 001°37'1019.5
2019-Aug-20 13:00N 49°59' W 001°45'1020.4
2019-Aug-20 12:30N 49°51' W 001°54'1221.0
2019-Aug-20 11:57N 49°40' W 002°01'920.9
2019-Aug-20 11:30N 49°31' W 001°60'50 8.7
2019-Aug-20 05:43N 48°40' W 002°05'2514.0
2019-Aug-20 03:54N 49°03' W 002°21'615.8
2019-Aug-20 03:30N 49°10' W 002°22'917.4
2019-Aug-20 03:00N 49°18' W 002°20'917.3
2019-Aug-20 02:30N 49°26' W 002°14'917.1
2019-Aug-20 02:00N 49°34' W 002°08'1017.6
2019-Aug-20 01:27N 49°43' W 002°02'716.3
2019-Aug-20 01:01N 49°49' W 001°55'714.6
2019-Aug-20 00:31N 49°55' W 001°49'714.0
2019-Aug-20 00:00N 50°00' W 001°42'714.0
2019-Aug-19 23:31N 50°07' W 001°38'713.2
2019-Aug-19 23:01N 50°12' W 001°33'612.8
2019-Aug-19 22:30N 50°18' W 001°27'812.9
2019-Aug-19 21:55N 50°24' W 001°20'613.2
2019-Aug-19 21:30N 50°28' W 001°15'612.7
2019-Aug-19 21:00N 50°34' W 001°10'612.8
2019-Aug-19 20:30N 50°39' W 001°05'5 9.7
2019-Aug-19 20:00N 50°44' W 001°03'510.4
2019-Aug-19 19:31N 50°48' W 001°07'1 1.6
2019-Aug-19 18:58N 50°49' W 001°06'0 0.0
2019-Aug-19 18:28N 50°49' W 001°06'0 0.0
2019-Aug-19 17:58N 50°49' W 001°06'0 0.0
2019-Aug-19 17:28N 50°49' W 001°06'1 1.5
2019-Aug-19 17:00N 50°48' W 001°07'611.2
2019-Aug-19 16:31N 50°43' W 001°03'612.6
2019-Aug-19 16:01N 50°38' W 001°06'713.9
2019-Aug-19 15:30N 50°32' W 001°12'816.1
2019-Aug-19 15:00N 50°25' W 001°20'816.3
2019-Aug-19 14:30N 50°18' W 001°27'918.2
2019-Aug-19 14:01N 50°11' W 001°35'1018.7
2019-Aug-19 13:28N 50°04' W 001°46'1019.4
2019-Aug-19 12:58N 49°55' W 001°53'2019.7
2019-Aug-19 11:58N 49°37' W 002°03'920.4
2019-Aug-19 11:30N 49°27' W 002°04'1020.5
2019-Aug-19 11:00N 49°17' W 002°05'17 2.5
2019-Aug-19 04:14N 49°04' W 002°22'417.1
2019-Aug-19 03:59N 49°08' W 002°22'715.4
2019-Aug-19 03:31N 49°16' W 002°21'612.7
2019-Aug-19 03:00N 49°22' W 002°17'713.1
2019-Aug-19 02:31N 49°28' W 002°13'713.2
2019-Aug-19 02:00N 49°34' W 002°09'713.4
2019-Aug-19 01:29N 49°40' W 002°04'816.3
2019-Aug-19 01:00N 49°47' W 001°59'714.8
2019-Aug-19 00:30N 49°53' W 001°52'714.2
2019-Aug-19 00:00N 49°59' W 001°46'713.5
2019-Aug-18 23:30N 50°05' W 001°41'612.8
2019-Aug-18 23:00N 50°10' W 001°35'612.6
2019-Aug-18 22:30N 50°15' W 001°30'612.4
2019-Aug-18 22:00N 50°20' W 001°24'612.6
2019-Aug-18 21:30N 50°25' W 001°18'612.4
2019-Aug-18 21:00N 50°31' W 001°13'612.0
2019-Aug-18 20:30N 50°36' W 001°08'612.3
2019-Aug-18 20:00N 50°41' W 001°02'612.2
2019-Aug-18 19:30N 50°47' W 001°06'2 4.0
2019-Aug-18 18:58N 50°49' W 001°06'0 0.0
2019-Aug-18 18:28N 50°49' W 001°06'0 0.0
2019-Aug-18 17:58N 50°49' W 001°06'0 0.0
2019-Aug-18 17:28N 50°49' W 001°06'1 1.6
2019-Aug-18 17:00N 50°48' W 001°07'510.0
2019-Aug-18 16:31N 50°44' W 001°03'611.5
2019-Aug-18 16:01N 50°38' W 001°05'713.6
2019-Aug-18 15:31N 50°32' W 001°11'815.2
2019-Aug-18 15:00N 50°26' W 001°17'817.0
2019-Aug-18 14:30N 50°18' W 001°24'918.1
2019-Aug-18 14:00N 50°11' W 001°31'918.4
2019-Aug-18 13:31N 50°03' W 001°39'1019.0
2019-Aug-18 13:01N 49°55' W 001°47'1019.3
2019-Aug-18 12:30N 49°48' W 001°57'918.8
2019-Aug-18 12:00N 49°39' W 002°03'1019.7
2019-Aug-18 11:31N 49°29' W 002°03'1020.1
2019-Aug-18 11:01N 49°19' W 002°05'1320.1
2019-Aug-18 10:22N 49°09' W 001°53'30 6.5
2019-Aug-18 05:46N 48°40' W 002°04'618.1
2019-Aug-18 05:27N 48°45' W 002°08'2114.7
2019-Aug-18 04:01N 49°04' W 002°22'013.4
2019-Aug-18 04:00N 49°04' W 002°22'713.8
2019-Aug-18 03:30N 49°11' W 002°22'714.0
2019-Aug-18 03:00N 49°18' W 002°19'714.1
2019-Aug-18 02:31N 49°24' W 002°15'714.2
2019-Aug-18 02:01N 49°31' W 002°10'714.4
2019-Aug-18 01:30N 49°37' W 002°06'816.4
2019-Aug-18 01:01N 49°45' W 002°02'816.1
2019-Aug-18 00:30N 49°52' W 001°55'815.5
2019-Aug-18 00:01N 49°58' W 001°49'714.7
2019-Aug-17 23:30N 50°04' W 001°42'714.0
2019-Aug-17 23:00N 50°10' W 001°36'713.7
2019-Aug-17 22:31N 50°16' W 001°29'713.4
2019-Aug-17 22:00N 50°21' W 001°23'713.2
2019-Aug-17 21:30N 50°26' W 001°17'612.9
2019-Aug-17 21:00N 50°32' W 001°12'612.2
2019-Aug-17 20:30N 50°37' W 001°07'611.2
2019-Aug-17 20:00N 50°42' W 001°03'611.8
2019-Aug-17 19:30N 50°47' W 001°07'1 2.7
2019-Aug-17 19:00N 50°49' W 001°06'0 0.0
2019-Aug-17 18:30N 50°49' W 001°06'0 0.0
2019-Aug-17 17:30N 50°49' W 001°06'1 1.2
2019-Aug-17 17:01N 50°49' W 001°07'611.6
2019-Aug-17 16:30N 50°43' W 001°03'612.1
2019-Aug-17 16:00N 50°37' W 001°06'816.2
2019-Aug-17 15:30N 50°31' W 001°13'817.0
2019-Aug-17 15:00N 50°24' W 001°22'917.1
2019-Aug-17 14:30N 50°18' W 001°31'917.5
2019-Aug-17 14:00N 50°10' W 001°38'917.9
2019-Aug-17 13:30N 50°02' W 001°44'918.1
2019-Aug-17 13:00N 49°55' W 001°52'918.4
2019-Aug-17 12:30N 49°47' W 001°59'916.9
2019-Aug-17 12:00N 49°39' W 002°04'919.0
2019-Aug-17 11:30N 49°31' W 002°12'1020.0
2019-Aug-17 11:01N 49°22' W 002°18'1019.9
2019-Aug-17 10:30N 49°12' W 002°22'1120.4
2019-Aug-17 09:58N 49°01' W 002°22'1020.0
2019-Aug-17 09:28N 48°51' W 002°18'1419.3
2019-Aug-17 08:46N 48°41' W 002°05'312.1
2019-Aug-17 08:30N 48°38' W 002°02'0 0.0
2019-Aug-17 07:33N 48°38' W 002°02'0 0.0
2019-Aug-17 07:24N 48°38' W 002°02'0 0.2
2019-Aug-17 05:57N 48°38' W 002°02'2815.3
2019-Aug-17 04:05N 49°04' W 002°22'112.7
2019-Aug-17 03:59N 49°05' W 002°22'612.9
2019-Aug-17 03:30N 49°11' W 002°23'612.7
2019-Aug-17 03:00N 49°17' W 002°24'611.1
2019-Aug-17 02:31N 49°23' W 002°23'612.4
2019-Aug-17 02:00N 49°26' W 002°15'713.2
2019-Aug-17 01:30N 49°31' W 002°09'917.5
2019-Aug-17 00:58N 49°40' W 002°04'918.5
2019-Aug-17 00:30N 49°47' W 001°56'815.8
2019-Aug-17 00:00N 49°51' W 001°45'815.2
2019-Aug-16 23:30N 49°58' W 001°40'815.7
2019-Aug-16 23:00N 50°05' W 001°35'815.3
2019-Aug-16 22:31N 50°12' W 001°31'714.4
2019-Aug-16 22:01N 50°18' W 001°25'714.0
2019-Aug-16 21:30N 50°24' W 001°19'713.9
2019-Aug-16 21:00N 50°30' W 001°13'713.4
2019-Aug-16 20:30N 50°36' W 001°08'713.2
2019-Aug-16 20:00N 50°41' W 001°02'612.4
2019-Aug-16 19:30N 50°47' W 001°06'2 3.9
2019-Aug-16 19:00N 50°49' W 001°06'0 0.0
2019-Aug-16 18:30N 50°49' W 001°06'0 0.0
2019-Aug-16 18:00N 50°49' W 001°06'0 0.0
2019-Aug-16 17:30N 50°49' W 001°06'1 1.4
2019-Aug-16 17:00N 50°48' W 001°07'611.3
2019-Aug-16 16:30N 50°44' W 001°02'611.9
2019-Aug-16 16:00N 50°38' W 001°05'917.0
2019-Aug-16 15:30N 50°31' W 001°12'917.7
2019-Aug-16 15:01N 50°23' W 001°20'917.7
2019-Aug-16 14:30N 50°16' W 001°28'917.2
2019-Aug-16 14:00N 50°10' W 001°37'917.1
2019-Aug-16 13:30N 50°03' W 001°46'917.8
2019-Aug-16 13:00N 49°55' W 001°51'917.9
2019-Aug-16 12:30N 49°47' W 001°58'815.5
2019-Aug-16 12:00N 49°40' W 002°04'918.3
2019-Aug-16 11:31N 49°32' W 002°10'1019.8
2019-Aug-16 11:01N 49°23' W 002°16'1019.7
2019-Aug-16 10:30N 49°14' W 002°22'1120.7
2019-Aug-16 09:57N 49°03' W 002°22'2811.5
2019-Aug-16 07:33N 48°38' W 002°02'0 0.0
2019-Aug-16 06:57N 48°38' W 002°02'0 0.0
2019-Aug-16 06:21N 48°38' W 002°02'0 0.3
2019-Aug-16 06:00N 48°38' W 002°02'713.1
2019-Aug-16 05:30N 48°44' W 002°07'1218.5
2019-Aug-16 04:52N 48°53' W 002°19'714.6
2019-Aug-16 04:25N 48°59' W 002°22'512.6
2019-Aug-16 03:59N 49°05' W 002°22'613.1
2019-Aug-16 03:30N 49°11' W 002°22'612.6
2019-Aug-16 03:00N 49°17' W 002°20'612.3
2019-Aug-16 02:30N 49°23' W 002°16'713.2
2019-Aug-16 02:00N 49°28' W 002°11'714.1
2019-Aug-16 01:30N 49°35' W 002°07'815.3
2019-Aug-16 01:00N 49°42' W 002°04'814.6
2019-Aug-16 00:30N 49°49' W 001°58'917.0
2019-Aug-16 00:00N 49°56' W 001°50'815.8
2019-Aug-15 23:29N 50°03' W 001°43'715.2
2019-Aug-15 23:00N 50°09' W 001°37'714.6
2019-Aug-15 22:30N 50°14' W 001°30'714.3
2019-Aug-15 22:00N 50°20' W 001°24'714.0
2019-Aug-15 21:30N 50°26' W 001°18'713.4
2019-Aug-15 21:00N 50°32' W 001°13'713.2
2019-Aug-15 20:30N 50°37' W 001°07'611.2
2019-Aug-15 20:00N 50°43' W 001°03'612.5
2019-Aug-15 19:30N 50°48' W 001°07'1 1.8
2019-Aug-15 19:00N 50°49' W 001°06'0 0.0
2019-Aug-15 18:30N 50°49' W 001°06'0 0.0
2019-Aug-15 18:00N 50°49' W 001°06'0 0.0
2019-Aug-15 17:31N 50°49' W 001°06'2 4.4
2019-Aug-15 17:00N 50°46' W 001°06'611.4
2019-Aug-15 16:30N 50°41' W 001°03'815.7
2019-Aug-15 16:00N 50°34' W 001°09'917.7
2019-Aug-15 15:30N 50°27' W 001°17'918.0
2019-Aug-15 15:00N 50°19' W 001°25'3417.1
2019-Aug-15 12:59N 49°51' W 001°55'816.0
2019-Aug-15 12:30N 49°45' W 002°01'714.9
2019-Aug-15 12:00N 49°38' W 002°07'917.8
2019-Aug-15 11:31N 49°30' W 002°12'1018.9
2019-Aug-15 11:00N 49°21' W 002°18'1019.1
2019-Aug-15 10:31N 49°12' W 002°22'1020.1
2019-Aug-15 09:59N 49°02' W 002°22'3 0.5
2019-Aug-15 04:05N 49°05' W 002°22'116.7
2019-Aug-15 04:00N 49°06' W 002°22'816.0
2019-Aug-15 03:30N 49°14' W 002°22'612.1
2019-Aug-15 03:00N 49°20' W 002°20'612.7
2019-Aug-15 02:30N 49°25' W 002°16'713.2
2019-Aug-15 02:00N 49°31' W 002°12'713.7
2019-Aug-15 01:30N 49°38' W 002°08'1015.4
2019-Aug-15 00:53N 49°47' W 002°03'1413.7
2019-Aug-14 23:53N 49°58' W 001°50'1015.8
2019-Aug-14 23:14N 50°06' W 001°41'415.1
2019-Aug-14 23:00N 50°09' W 001°38'914.6
2019-Aug-14 22:21N 50°17' W 001°29'514.2
2019-Aug-14 22:00N 50°21' W 001°24'713.8
2019-Aug-14 21:30N 50°26' W 001°18'713.5
2019-Aug-14 21:00N 50°32' W 001°12'713.3
2019-Aug-14 20:30N 50°37' W 001°07'611.4
2019-Aug-14 20:00N 50°43' W 001°03'611.5
2019-Aug-14 19:30N 50°48' W 001°07'1 1.8
2019-Aug-14 19:00N 50°49' W 001°06'0 0.0
2019-Aug-14 18:30N 50°49' W 001°06'0 0.0
2019-Aug-14 18:00N 50°49' W 001°06'0 0.0
2019-Aug-14 17:30N 50°49' W 001°06'1 2.2
2019-Aug-14 17:01N 50°48' W 001°07'613.0
2019-Aug-14 16:30N 50°42' W 001°02'815.7
2019-Aug-14 16:00N 50°35' W 001°08'918.9
2019-Aug-14 15:30N 50°27' W 001°16'1018.5
2019-Aug-14 14:58N 50°19' W 001°25'918.2
2019-Aug-14 14:29N 50°12' W 001°33'3217.2
2019-Aug-14 12:37N 49°45' W 002°01'214.9
2019-Aug-14 12:30N 49°44' W 002°02'815.0
2019-Aug-14 11:59N 49°37' W 002°08'817.7
2019-Aug-14 11:30N 49°29' W 002°13'918.7
2019-Aug-14 11:00N 49°21' W 002°19'1019.2
2019-Aug-14 10:30N 49°11' W 002°22'3318.9
2019-Aug-14 08:46N 48°40' W 002°05'  
Track history (hours):
 
Tides and Currents Weather Stations Pressure Air Temp Water Temp Dewpoint Dewpoint Depression Visibility Wind Speed Wind Dir Waves Ship Positions

Bretagne

Operator: Brittany Ferries

Last reported at 2019-Aug-24 07:13 UTC. Time now 2019-Aug-24 07:44 UTC.
Position N 48°38' W 002°02'.

Length 151 m; beam 27 m.

Type: Ship. MMSI: 227286000.

Date/timePositionNaut miles runAvg speedWind from/ knotsBaromVisibWave heightAir tempDewpointWater temp
2019-Aug-24 07:13N 48°38' W 002°02'0 0.0
2019-Aug-24 06:58N 48°38' W 002°02'0 0.0
2019-Aug-24 06:16N 48°38' W 002°02'0 0.5
2019-Aug-24 06:01N 48°38' W 002°02'712.8
2019-Aug-24 05:30N 48°44' W 002°07'815.2
2019-Aug-24 05:00N 48°50' W 002°15'713.0
2019-Aug-24 04:30N 48°55' W 002°21'611.5
2019-Aug-24 04:00N 49°00' W 002°23'611.6
2019-Aug-24 03:31N 49°06' W 002°23'611.5
2019-Aug-24 03:01N 49°12' W 002°22'611.4
2019-Aug-24 02:31N 49°17' W 002°21'714.1
2019-Aug-24 02:01N 49°24' W 002°17'714.2
2019-Aug-24 01:30N 49°30' W 002°12'714.1
2019-Aug-24 01:01N 49°37' W 002°07'612.8
2019-Aug-24 00:31N 49°43' W 002°04'612.1
2019-Aug-24 00:01N 49°48' W 001°58'713.5
2019-Aug-23 23:30N 49°53' W 001°52'714.7
2019-Aug-23 23:01N 49°59' W 001°45'815.5
2019-Aug-23 22:30N 50°06' W 001°40'816.0
2019-Aug-23 22:00N 50°12' W 001°32'816.1
2019-Aug-23 21:30N 50°19' W 001°26'816.5
2019-Aug-23 21:01N 50°26' W 001°19'816.9
2019-Aug-23 20:31N 50°33' W 001°11'816.4
2019-Aug-23 20:00N 50°40' W 001°04'612.4
2019-Aug-23 19:30N 50°46' W 001°05'3 5.4
2019-Aug-23 19:00N 50°49' W 001°06'0 0.0
2019-Aug-23 18:30N 50°49' W 001°06'0 0.0
2019-Aug-23 18:00N 50°49' W 001°06'0 0.0
2019-Aug-23 17:30N 50°49' W 001°06'1 1.7
2019-Aug-23 17:00N 50°48' W 001°07'612.4
2019-Aug-23 16:30N 50°43' W 001°03'713.5
2019-Aug-23 16:00N 50°36' W 001°08'815.6
2019-Aug-23 15:30N 50°29' W 001°13'816.2
2019-Aug-23 15:00N 50°23' W 001°21'816.4
2019-Aug-23 14:30N 50°17' W 001°29'816.7
2019-Aug-23 14:00N 50°10' W 001°36'917.0
2019-Aug-23 13:30N 50°03' W 001°43'816.8
2019-Aug-23 13:00N 49°55' W 001°49'817.0
2019-Aug-23 12:30N 49°48' W 001°56'918.2
2019-Aug-23 12:00N 49°39' W 002°02'918.1
2019-Aug-23 11:30N 49°31' W 001°59'1019.3
2019-Aug-23 11:00N 49°21' W 001°57'1318.0
2019-Aug-23 10:18N 49°09' W 001°53'618.2
2019-Aug-23 10:00N 49°03' W 001°50'918.4
2019-Aug-23 09:30N 48°55' W 001°57'1518.9
2019-Aug-23 08:43N 48°42' W 002°06'315.6
2019-Aug-23 08:30N 48°39' W 002°03'1 1.3
2019-Aug-23 07:53N 48°38' W 002°02'0 0.0
2019-Aug-23 06:44N 48°38' W 002°02'0 0.0
2019-Aug-23 06:26N 48°38' W 002°02'0 0.1
2019-Aug-23 06:00N 48°38' W 002°02'612.9
2019-Aug-23 05:30N 48°44' W 002°08'917.3
2019-Aug-23 05:00N 48°50' W 002°16'815.0
2019-Aug-23 04:30N 48°57' W 002°21'816.0
2019-Aug-23 04:00N 49°05' W 002°22'816.0
2019-Aug-23 03:30N 49°13' W 002°22'612.5
2019-Aug-23 03:00N 49°19' W 002°19'612.5
2019-Aug-23 02:30N 49°25' W 002°15'714.8
2019-Aug-23 02:01N 49°31' W 002°10'815.4
2019-Aug-23 01:30N 49°38' W 002°05'713.7
2019-Aug-23 00:58N 49°45' W 001°59'612.8
2019-Aug-23 00:30N 49°48' W 001°52'713.9
2019-Aug-23 00:00N 49°54' W 001°46'714.6
2019-Aug-22 23:31N 50°01' W 001°42'815.0
2019-Aug-22 23:00N 50°08' W 001°38'814.8
2019-Aug-22 22:28N 50°14' W 001°30'815.3
2019-Aug-22 21:58N 50°21' W 001°23'715.5
2019-Aug-22 21:30N 50°26' W 001°17'815.5
2019-Aug-22 21:00N 50°32' W 001°08'815.8
2019-Aug-22 20:31N 50°38' W 001°01'611.4
2019-Aug-22 20:00N 50°44' W 001°03'510.9
2019-Aug-22 19:31N 50°49' W 001°07'1 1.1
2019-Aug-22 18:58N 50°49' W 001°06'0 0.0
2019-Aug-22 18:28N 50°49' W 001°06'0 0.0
2019-Aug-22 17:58N 50°49' W 001°06'0 0.0
2019-Aug-22 17:28N 50°49' W 001°06'0 0.7
2019-Aug-22 17:01N 50°49' W 001°06'510.6
2019-Aug-22 16:30N 50°44' W 001°04'713.0
2019-Aug-22 16:00N 50°37' W 001°07'613.0
2019-Aug-22 15:30N 50°32' W 001°12'612.1
2019-Aug-22 15:00N 50°27' W 001°17'612.6
2019-Aug-22 14:30N 50°22' W 001°23'713.3
2019-Aug-22 14:00N 50°17' W 001°30'917.1
2019-Aug-22 13:30N 50°09' W 001°37'917.6
2019-Aug-22 13:00N 50°02' W 001°44'918.1
2019-Aug-22 12:30N 49°54' W 001°52'1019.1
2019-Aug-22 12:00N 49°46' W 001°59'1019.9
2019-Aug-22 11:29N 49°36' W 001°59'1020.1
2019-Aug-22 11:00N 49°26' W 001°57'1019.9
2019-Aug-22 10:30N 49°17' W 001°53'1018.9
2019-Aug-22 10:00N 49°07' W 001°52'1018.0
2019-Aug-22 09:25N 48°57' W 001°56'1519.2
2019-Aug-22 08:39N 48°42' W 002°01'317.1
2019-Aug-22 08:28N 48°40' W 002°02'1 2.1
2019-Aug-22 07:56N 48°38' W 002°02'0 0.0
2019-Aug-22 07:10N 48°38' W 002°02'0 0.0
2019-Aug-22 06:58N 48°38' W 002°02'0 0.0
2019-Aug-22 06:28N 48°38' W 002°02'0 0.1
2019-Aug-22 06:00N 48°38' W 002°02'814.4
2019-Aug-22 05:28N 48°45' W 002°08'816.6
2019-Aug-22 05:00N 48°51' W 002°16'916.1
2019-Aug-22 04:29N 48°58' W 002°22'816.3
2019-Aug-22 03:59N 49°06' W 002°23'612.6
2019-Aug-22 03:30N 49°12' W 002°22'713.2
2019-Aug-22 03:01N 49°19' W 002°19'713.1
2019-Aug-22 02:30N 49°25' W 002°16'713.3
2019-Aug-22 02:00N 49°31' W 002°13'816.3
2019-Aug-22 01:30N 49°38' W 002°07'815.2
2019-Aug-22 01:00N 49°45' W 002°02'713.6
2019-Aug-22 00:30N 49°50' W 001°54'713.8
2019-Aug-22 00:00N 49°54' W 001°46'714.1
2019-Aug-21 23:31N 49°60' W 001°40'714.5
2019-Aug-21 23:00N 50°06' W 001°35'714.6
2019-Aug-21 22:30N 50°13' W 001°29'714.8
2019-Aug-21 22:00N 50°19' W 001°22'815.1
2019-Aug-21 21:30N 50°25' W 001°16'714.6
2019-Aug-21 21:00N 50°31' W 001°09'714.4
2019-Aug-21 20:30N 50°37' W 001°02'612.4
2019-Aug-21 20:00N 50°43' W 000°60'713.4
2019-Aug-21 19:30N 50°48' W 001°07'1 1.8
2019-Aug-21 18:58N 50°49' W 001°06'0 0.0
2019-Aug-21 18:28N 50°49' W 001°06'0 0.0
2019-Aug-21 17:58N 50°49' W 001°06'0 0.0
2019-Aug-21 17:29N 50°49' W 001°06'0 0.9
2019-Aug-21 17:01N 50°49' W 001°06'510.5
2019-Aug-21 16:30N 50°44' W 001°04'612.4
2019-Aug-21 16:00N 50°38' W 001°06'510.4
2019-Aug-21 15:30N 50°33' W 001°10'611.4
2019-Aug-21 15:00N 50°28' W 001°14'713.7
2019-Aug-21 14:30N 50°22' W 001°19'916.6
2019-Aug-21 14:00N 50°14' W 001°25'918.8
2019-Aug-21 13:31N 50°08' W 001°36'1019.1
2019-Aug-21 13:00N 50°00' W 001°44'1019.7
2019-Aug-21 12:30N 49°52' W 001°52'1121.0
2019-Aug-21 11:58N 49°42' W 002°01'1021.9
2019-Aug-21 11:30N 49°32' W 002°00'1121.2
2019-Aug-21 11:01N 49°22' W 001°56'1019.3
2019-Aug-21 10:29N 49°12' W 001°52'1218.4
2019-Aug-21 09:49N 48°60' W 001°54'1819.3
2019-Aug-21 08:52N 48°42' W 002°01'4 1.7
2019-Aug-21 06:37N 48°38' W 002°02'0 0.0
2019-Aug-21 06:25N 48°38' W 002°02'0 0.2
2019-Aug-21 06:01N 48°38' W 002°02'612.9
2019-Aug-21 05:30N 48°44' W 002°07'1016.3
2019-Aug-21 04:54N 48°51' W 002°17'815.5
2019-Aug-21 04:25N 48°58' W 002°22'716.8
2019-Aug-21 04:00N 49°05' W 002°22'714.8
2019-Aug-21 03:30N 49°12' W 002°22'713.8
2019-Aug-21 03:00N 49°19' W 002°20'713.2
2019-Aug-21 02:30N 49°25' W 002°16'612.9
2019-Aug-21 02:00N 49°31' W 002°11'612.7
2019-Aug-21 01:31N 49°37' W 002°08'916.4
2019-Aug-21 00:59N 49°45' W 002°02'714.2
2019-Aug-21 00:30N 49°49' W 001°55'714.0
2019-Aug-21 00:00N 49°54' W 001°47'714.3
2019-Aug-20 23:30N 49°60' W 001°41'714.8
2019-Aug-20 23:01N 50°07' W 001°37'714.2
2019-Aug-20 22:30N 50°13' W 001°31'714.3
2019-Aug-20 22:00N 50°18' W 001°24'1014.5
2019-Aug-20 21:19N 50°26' W 001°14'414.3
2019-Aug-20 21:00N 50°30' W 001°10'714.4
2019-Aug-20 20:30N 50°36' W 001°04'713.7
2019-Aug-20 20:00N 50°42' W 000°59'612.6
2019-Aug-20 19:30N 50°46' W 001°06'2 4.4
2019-Aug-20 18:58N 50°49' W 001°06'0 0.0
2019-Aug-20 18:28N 50°49' W 001°06'0 0.0
2019-Aug-20 17:58N 50°49' W 001°06'0 0.0
2019-Aug-20 17:28N 50°49' W 001°06'1 1.4
2019-Aug-20 17:00N 50°49' W 001°07'611.3
2019-Aug-20 16:31N 50°43' W 001°03'612.3
2019-Aug-20 16:00N 50°37' W 001°06'612.6
2019-Aug-20 15:30N 50°32' W 001°10'1012.6
2019-Aug-20 14:42N 50°23' W 001°17'314.9
2019-Aug-20 14:30N 50°20' W 001°19'917.4
2019-Aug-20 14:00N 50°12' W 001°26'917.6
2019-Aug-20 13:30N 50°07' W 001°37'1019.5
2019-Aug-20 13:00N 49°59' W 001°45'1020.4
2019-Aug-20 12:30N 49°51' W 001°54'1221.0
2019-Aug-20 11:57N 49°40' W 002°01'920.9
2019-Aug-20 11:30N 49°31' W 001°60'50 8.7
2019-Aug-20 05:43N 48°40' W 002°05'2514.0
2019-Aug-20 03:54N 49°03' W 002°21'615.8
2019-Aug-20 03:30N 49°10' W 002°22'917.4
2019-Aug-20 03:00N 49°18' W 002°20'917.3
2019-Aug-20 02:30N 49°26' W 002°14'917.1
2019-Aug-20 02:00N 49°34' W 002°08'1017.6
2019-Aug-20 01:27N 49°43' W 002°02'716.3
2019-Aug-20 01:01N 49°49' W 001°55'714.6
2019-Aug-20 00:31N 49°55' W 001°49'714.0
2019-Aug-20 00:00N 50°00' W 001°42'714.0
2019-Aug-19 23:31N 50°07' W 001°38'713.2
2019-Aug-19 23:01N 50°12' W 001°33'612.8
2019-Aug-19 22:30N 50°18' W 001°27'812.9
2019-Aug-19 21:55N 50°24' W 001°20'613.2
2019-Aug-19 21:30N 50°28' W 001°15'612.7
2019-Aug-19 21:00N 50°34' W 001°10'612.8
2019-Aug-19 20:30N 50°39' W 001°05'5 9.7
2019-Aug-19 20:00N 50°44' W 001°03'510.4
2019-Aug-19 19:31N 50°48' W 001°07'1 1.6
2019-Aug-19 18:58N 50°49' W 001°06'0 0.0
2019-Aug-19 18:28N 50°49' W 001°06'0 0.0
2019-Aug-19 17:58N 50°49' W 001°06'0 0.0
2019-Aug-19 17:28N 50°49' W 001°06'1 1.5
2019-Aug-19 17:00N 50°48' W 001°07'611.2
2019-Aug-19 16:31N 50°43' W 001°03'612.6
2019-Aug-19 16:01N 50°38' W 001°06'713.9
2019-Aug-19 15:30N 50°32' W 001°12'816.1
2019-Aug-19 15:00N 50°25' W 001°20'816.3
2019-Aug-19 14:30N 50°18' W 001°27'918.2
2019-Aug-19 14:01N 50°11' W 001°35'1018.7
2019-Aug-19 13:28N 50°04' W 001°46'1019.4
2019-Aug-19 12:58N 49°55' W 001°53'2019.7
2019-Aug-19 11:58N 49°37' W 002°03'920.4
2019-Aug-19 11:30N 49°27' W 002°04'1020.5
2019-Aug-19 11:00N 49°17' W 002°05'17 2.5
2019-Aug-19 04:14N 49°04' W 002°22'417.1
2019-Aug-19 03:59N 49°08' W 002°22'715.4
2019-Aug-19 03:31N 49°16' W 002°21'612.7
2019-Aug-19 03:00N 49°22' W 002°17'713.1
2019-Aug-19 02:31N 49°28' W 002°13'713.2
2019-Aug-19 02:00N 49°34' W 002°09'713.4
2019-Aug-19 01:29N 49°40' W 002°04'816.3
2019-Aug-19 01:00N 49°47' W 001°59'714.8
2019-Aug-19 00:30N 49°53' W 001°52'714.2
2019-Aug-19 00:00N 49°59' W 001°46'713.5
2019-Aug-18 23:30N 50°05' W 001°41'612.8
2019-Aug-18 23:00N 50°10' W 001°35'612.6
2019-Aug-18 22:30N 50°15' W 001°30'612.4
2019-Aug-18 22:00N 50°20' W 001°24'612.6
2019-Aug-18 21:30N 50°25' W 001°18'612.4
2019-Aug-18 21:00N 50°31' W 001°13'612.0
2019-Aug-18 20:30N 50°36' W 001°08'612.3
2019-Aug-18 20:00N 50°41' W 001°02'612.2
2019-Aug-18 19:30N 50°47' W 001°06'2 4.0
2019-Aug-18 18:58N 50°49' W 001°06'0 0.0
2019-Aug-18 18:28N 50°49' W 001°06'0 0.0
2019-Aug-18 17:58N 50°49' W 001°06'0 0.0
2019-Aug-18 17:28N 50°49' W 001°06'1 1.6
2019-Aug-18 17:00N 50°48' W 001°07'510.0
2019-Aug-18 16:31N 50°44' W 001°03'611.5
2019-Aug-18 16:01N 50°38' W 001°05'713.6
2019-Aug-18 15:31N 50°32' W 001°11'815.2
2019-Aug-18 15:00N 50°26' W 001°17'817.0
2019-Aug-18 14:30N 50°18' W 001°24'918.1
2019-Aug-18 14:00N 50°11' W 001°31'918.4
2019-Aug-18 13:31N 50°03' W 001°39'1019.0
2019-Aug-18 13:01N 49°55' W 001°47'1019.3
2019-Aug-18 12:30N 49°48' W 001°57'918.8
2019-Aug-18 12:00N 49°39' W 002°03'1019.7
2019-Aug-18 11:31N 49°29' W 002°03'1020.1
2019-Aug-18 11:01N 49°19' W 002°05'1320.1
2019-Aug-18 10:22N 49°09' W 001°53'30 6.5
2019-Aug-18 05:46N 48°40' W 002°04'618.1
2019-Aug-18 05:27N 48°45' W 002°08'2114.7
2019-Aug-18 04:01N 49°04' W 002°22'013.4
2019-Aug-18 04:00N 49°04' W 002°22'713.8
2019-Aug-18 03:30N 49°11' W 002°22'714.0
2019-Aug-18 03:00N 49°18' W 002°19'714.1
2019-Aug-18 02:31N 49°24' W 002°15'714.2
2019-Aug-18 02:01N 49°31' W 002°10'714.4
2019-Aug-18 01:30N 49°37' W 002°06'816.4
2019-Aug-18 01:01N 49°45' W 002°02'816.1
2019-Aug-18 00:30N 49°52' W 001°55'815.5
2019-Aug-18 00:01N 49°58' W 001°49'714.7
2019-Aug-17 23:30N 50°04' W 001°42'714.0
2019-Aug-17 23:00N 50°10' W 001°36'713.7
2019-Aug-17 22:31N 50°16' W 001°29'713.4
2019-Aug-17 22:00N 50°21' W 001°23'713.2
2019-Aug-17 21:30N 50°26' W 001°17'612.9
2019-Aug-17 21:00N 50°32' W 001°12'612.2
2019-Aug-17 20:30N 50°37' W 001°07'611.2
2019-Aug-17 20:00N 50°42' W 001°03'611.8
2019-Aug-17 19:30N 50°47' W 001°07'1 2.7
2019-Aug-17 19:00N 50°49' W 001°06'0 0.0
2019-Aug-17 18:30N 50°49' W 001°06'0 0.0
2019-Aug-17 17:30N 50°49' W 001°06'1 1.2
2019-Aug-17 17:01N 50°49' W 001°07'611.6
2019-Aug-17 16:30N 50°43' W 001°03'612.1
2019-Aug-17 16:00N 50°37' W 001°06'816.2
2019-Aug-17 15:30N 50°31' W 001°13'817.0
2019-Aug-17 15:00N 50°24' W 001°22'917.1
2019-Aug-17 14:30N 50°18' W 001°31'917.5
2019-Aug-17 14:00N 50°10' W 001°38'917.9
2019-Aug-17 13:30N 50°02' W 001°44'918.1
2019-Aug-17 13:00N 49°55' W 001°52'918.4
2019-Aug-17 12:30N 49°47' W 001°59'916.9
2019-Aug-17 12:00N 49°39' W 002°04'919.0
2019-Aug-17 11:30N 49°31' W 002°12'1020.0
2019-Aug-17 11:01N 49°22' W 002°18'1019.9
2019-Aug-17 10:30N 49°12' W 002°22'1120.4
2019-Aug-17 09:58N 49°01' W 002°22'1020.0
2019-Aug-17 09:28N 48°51' W 002°18'1419.3
2019-Aug-17 08:46N 48°41' W 002°05'312.1
2019-Aug-17 08:30N 48°38' W 002°02'0 0.0
2019-Aug-17 07:33N 48°38' W 002°02'0 0.0
2019-Aug-17 07:24N 48°38' W 002°02'0 0.2
2019-Aug-17 05:57N 48°38' W 002°02'2815.3
2019-Aug-17 04:05N 49°04' W 002°22'112.7
2019-Aug-17 03:59N 49°05' W 002°22'612.9
2019-Aug-17 03:30N 49°11' W 002°23'612.7
2019-Aug-17 03:00N 49°17' W 002°24'611.1
2019-Aug-17 02:31N 49°23' W 002°23'612.4
2019-Aug-17 02:00N 49°26' W 002°15'713.2
2019-Aug-17 01:30N 49°31' W 002°09'917.5
2019-Aug-17 00:58N 49°40' W 002°04'918.5
2019-Aug-17 00:30N 49°47' W 001°56'815.8
2019-Aug-17 00:00N 49°51' W 001°45'815.2
2019-Aug-16 23:30N 49°58' W 001°40'815.7
2019-Aug-16 23:00N 50°05' W 001°35'815.3
2019-Aug-16 22:31N 50°12' W 001°31'714.4
2019-Aug-16 22:01N 50°18' W 001°25'714.0
2019-Aug-16 21:30N 50°24' W 001°19'713.9
2019-Aug-16 21:00N 50°30' W 001°13'713.4
2019-Aug-16 20:30N 50°36' W 001°08'713.2
2019-Aug-16 20:00N 50°41' W 001°02'612.4
2019-Aug-16 19:30N 50°47' W 001°06'2 3.9
2019-Aug-16 19:00N 50°49' W 001°06'0 0.0
2019-Aug-16 18:30N 50°49' W 001°06'0 0.0
2019-Aug-16 18:00N 50°49' W 001°06'0 0.0
2019-Aug-16 17:30N 50°49' W 001°06'1 1.4
2019-Aug-16 17:00N 50°48' W 001°07'611.3
2019-Aug-16 16:30N 50°44' W 001°02'611.9
2019-Aug-16 16:00N 50°38' W 001°05'917.0
2019-Aug-16 15:30N 50°31' W 001°12'917.7
2019-Aug-16 15:01N 50°23' W 001°20'917.7
2019-Aug-16 14:30N 50°16' W 001°28'917.2
2019-Aug-16 14:00N 50°10' W 001°37'917.1
2019-Aug-16 13:30N 50°03' W 001°46'917.8
2019-Aug-16 13:00N 49°55' W 001°51'917.9
2019-Aug-16 12:30N 49°47' W 001°58'815.5
2019-Aug-16 12:00N 49°40' W 002°04'918.3
2019-Aug-16 11:31N 49°32' W 002°10'1019.8
2019-Aug-16 11:01N 49°23' W 002°16'1019.7
2019-Aug-16 10:30N 49°14' W 002°22'1120.7
2019-Aug-16 09:57N 49°03' W 002°22'2811.5
2019-Aug-16 07:33N 48°38' W 002°02'0 0.0
2019-Aug-16 06:57N 48°38' W 002°02'0 0.0
2019-Aug-16 06:21N 48°38' W 002°02'0 0.3
2019-Aug-16 06:00N 48°38' W 002°02'713.1
2019-Aug-16 05:30N 48°44' W 002°07'1218.5
2019-Aug-16 04:52N 48°53' W 002°19'714.6
2019-Aug-16 04:25N 48°59' W 002°22'512.6
2019-Aug-16 03:59N 49°05' W 002°22'613.1
2019-Aug-16 03:30N 49°11' W 002°22'612.6
2019-Aug-16 03:00N 49°17' W 002°20'612.3
2019-Aug-16 02:30N 49°23' W 002°16'713.2
2019-Aug-16 02:00N 49°28' W 002°11'714.1
2019-Aug-16 01:30N 49°35' W 002°07'815.3
2019-Aug-16 01:00N 49°42' W 002°04'814.6
2019-Aug-16 00:30N 49°49' W 001°58'917.0
2019-Aug-16 00:00N 49°56' W 001°50'815.8
2019-Aug-15 23:29N 50°03' W 001°43'715.2
2019-Aug-15 23:00N 50°09' W 001°37'714.6
2019-Aug-15 22:30N 50°14' W 001°30'714.3
2019-Aug-15 22:00N 50°20' W 001°24'714.0
2019-Aug-15 21:30N 50°26' W 001°18'713.4
2019-Aug-15 21:00N 50°32' W 001°13'713.2
2019-Aug-15 20:30N 50°37' W 001°07'611.2
2019-Aug-15 20:00N 50°43' W 001°03'612.5
2019-Aug-15 19:30N 50°48' W 001°07'1 1.8
2019-Aug-15 19:00N 50°49' W 001°06'0 0.0
2019-Aug-15 18:30N 50°49' W 001°06'0 0.0
2019-Aug-15 18:00N 50°49' W 001°06'0 0.0
2019-Aug-15 17:31N 50°49' W 001°06'2 4.4
2019-Aug-15 17:00N 50°46' W 001°06'611.4
2019-Aug-15 16:30N 50°41' W 001°03'815.7
2019-Aug-15 16:00N 50°34' W 001°09'917.7
2019-Aug-15 15:30N 50°27' W 001°17'918.0
2019-Aug-15 15:00N 50°19' W 001°25'3417.1
2019-Aug-15 12:59N 49°51' W 001°55'816.0
2019-Aug-15 12:30N 49°45' W 002°01'714.9
2019-Aug-15 12:00N 49°38' W 002°07'917.8
2019-Aug-15 11:31N 49°30' W 002°12'1018.9
2019-Aug-15 11:00N 49°21' W 002°18'1019.1
2019-Aug-15 10:31N 49°12' W 002°22'1020.1
2019-Aug-15 09:59N 49°02' W 002°22'3 0.5
2019-Aug-15 04:05N 49°05' W 002°22'116.7
2019-Aug-15 04:00N 49°06' W 002°22'816.0
2019-Aug-15 03:30N 49°14' W 002°22'612.1
2019-Aug-15 03:00N 49°20' W 002°20'612.7
2019-Aug-15 02:30N 49°25' W 002°16'713.2
2019-Aug-15 02:00N 49°31' W 002°12'713.7
2019-Aug-15 01:30N 49°38' W 002°08'1015.4
2019-Aug-15 00:53N 49°47' W 002°03'1413.7
2019-Aug-14 23:53N 49°58' W 001°50'1015.8
2019-Aug-14 23:14N 50°06' W 001°41'415.1
2019-Aug-14 23:00N 50°09' W 001°38'914.6
2019-Aug-14 22:21N 50°17' W 001°29'514.2
2019-Aug-14 22:00N 50°21' W 001°24'713.8
2019-Aug-14 21:30N 50°26' W 001°18'713.5
2019-Aug-14 21:00N 50°32' W 001°12'713.3
2019-Aug-14 20:30N 50°37' W 001°07'611.4
2019-Aug-14 20:00N 50°43' W 001°03'611.5
2019-Aug-14 19:30N 50°48' W 001°07'1 1.8
2019-Aug-14 19:00N 50°49' W 001°06'0 0.0
2019-Aug-14 18:30N 50°49' W 001°06'0 0.0
2019-Aug-14 18:00N 50°49' W 001°06'0 0.0
2019-Aug-14 17:30N 50°49' W 001°06'1 2.2
2019-Aug-14 17:01N 50°48' W 001°07'613.0
2019-Aug-14 16:30N 50°42' W 001°02'815.7
2019-Aug-14 16:00N 50°35' W 001°08'918.9
2019-Aug-14 15:30N 50°27' W 001°16'1018.5
2019-Aug-14 14:58N 50°19' W 001°25'918.2
2019-Aug-14 14:29N 50°12' W 001°33'3217.2
2019-Aug-14 12:37N 49°45' W 002°01'214.9
2019-Aug-14 12:30N 49°44' W 002°02'815.0
2019-Aug-14 11:59N 49°37' W 002°08'817.7
2019-Aug-14 11:30N 49°29' W 002°13'918.7
2019-Aug-14 11:00N 49°21' W 002°19'1019.2
2019-Aug-14 10:30N 49°11' W 002°22'3318.9
2019-Aug-14 08:46N 48°40' W 002°05'  

Dump ship's entire track history